Time;durP1;ratioP1;P1;durP2;ratioP2;P2;SDS_P1;SDS_P2;PMS_P1;PMS_P2;Temp;Humidity;BMP_temperature;BMP_pressure;BME280_temperature;BME280_humidity;BME280_pressure;Samples;Min_cycle;Max_cycle;Signal;HPM_P1;HPM_P2
2023/09/08 00:02:07;;;;;;;5.63;5.03;;;16.80;99.90;;;;;;5091734;28;20262;-71
2023/09/08 00:04:33;;;;;;;8.37;5.47;;;16.80;99.90;;;;;;5091405;28;20211;-71
2023/09/08 00:06:59;;;;;;;6.90;4.90;;;16.80;99.90;;;;;;5089717;28;20259;-71
2023/09/08 00:09:24;;;;;;;13.43;4.77;;;16.80;99.90;;;;;;5091243;28;20410;-72
2023/09/08 00:11:50;;;;;;;8.27;6.40;;;16.80;99.90;;;;;;5089568;28;20491;-72
2023/09/08 00:14:17;;;;;;;10.40;5.63;;;16.80;99.90;;;;;;5091147;28;20657;-71
2023/09/08 00:16:43;;;;;;;7.43;5.10;;;16.70;99.90;;;;;;5091384;28;20235;-71
2023/09/08 00:19:12;;;;;;;13.03;5.83;;;16.80;99.90;;;;;;5091119;28;20428;-71
2023/09/08 00:21:37;;;;;;;13.10;6.73;;;16.70;99.90;;;;;;5091105;28;20658;-71
2023/09/08 00:24:04;;;;;;;9.67;5.90;;;16.70;99.90;;;;;;5072749;28;20419;-71
2023/09/08 00:26:30;;;;;;;7.17;6.47;;;16.60;99.90;;;;;;5089630;28;20609;-71
2023/09/08 00:28:56;;;;;;;8.60;6.60;;;16.60;99.90;;;;;;5090939;28;20642;-71
2023/09/08 00:31:21;;;;;;;7.33;5.47;;;16.60;99.90;;;;;;5090837;28;20588;-72
2023/09/08 00:33:47;;;;;;;9.80;5.63;;;16.60;99.90;;;;;;5091025;28;20192;-71
2023/09/08 00:36:13;;;;;;;7.17;5.90;;;16.60;99.90;;;;;;5090862;28;20212;-71
2023/09/08 00:38:38;;;;;;;7.20;5.53;;;16.60;99.90;;;;;;5089223;28;20197;-71
2023/09/08 00:41:07;;;;;;;6.60;5.87;;;16.50;99.90;;;;;;5090388;28;20186;-71
2023/09/08 00:43:33;;;;;;;6.77;5.83;;;16.50;99.90;;;;;;5090523;28;20193;-71
2023/09/08 00:46:00;;;;;;;8.60;6.03;;;16.50;99.90;;;;;;5090500;28;20940;-71
2023/09/08 00:48:26;;;;;;;7.63;5.47;;;16.50;99.90;;;;;;5090577;28;20185;-71
2023/09/08 00:50:51;;;;;;;8.17;5.40;;;16.50;99.90;;;;;;5090421;28;20780;-71
2023/09/08 00:53:17;;;;;;;7.57;6.00;;;16.40;99.90;;;;;;5090506;28;20525;-71
2023/09/08 00:55:44;;;;;;;7.07;5.43;;;16.30;99.90;;;;;;5090411;28;20300;-71
2023/09/08 00:58:11;;;;;;;8.27;5.90;;;16.40;99.90;;;;;;5090396;28;20205;-71
2023/09/08 01:00:37;;;;;;;7.80;5.77;;;16.40;99.90;;;;;;5090327;28;20907;-71
2023/09/08 01:03:03;;;;;;;8.60;5.83;;;16.40;99.90;;;;;;5088715;28;20454;-71
2023/09/08 01:05:29;;;;;;;7.80;5.80;;;16.50;99.90;;;;;;5090158;28;20287;-71
2023/09/08 01:07:55;;;;;;;12.80;6.00;;;16.50;99.90;;;;;;5090415;28;20854;-71
2023/09/08 01:10:21;;;;;;;6.30;5.70;;;16.50;99.90;;;;;;5090193;28;20976;-71
2023/09/08 01:12:46;;;;;;;6.00;5.40;;;16.50;99.90;;;;;;5090176;28;20424;-71
2023/09/08 01:15:12;;;;;;;8.63;6.00;;;16.30;99.90;;;;;;5090170;28;20185;-71
2023/09/08 01:17:39;;;;;;;8.70;5.73;;;16.30;99.90;;;;;;5089966;28;20965;-71
2023/09/08 01:20:21;;;;;;;8.40;6.10;;;16.30;99.90;;;;;;5089949;28;20173;-71
2023/09/08 01:23:10;;;;;;;8.47;6.70;;;16.40;99.90;;;;;;5089927;28;20418;-71
2023/09/08 01:25:44;;;;;;;6.57;5.47;;;16.40;99.90;;;;;;5090187;28;20437;-71
2023/09/08 01:28:12;;;;;;;8.90;6.13;;;16.40;99.90;;;;;;5089816;28;20907;-71
2023/09/08 01:30:38;;;;;;;7.23;6.13;;;16.30;99.90;;;;;;5089572;28;20450;-71
2023/09/08 01:33:05;;;;;;;6.60;5.90;;;16.30;99.90;;;;;;5090006;28;20443;-71
2023/09/08 01:35:31;;;;;;;9.47;7.03;;;16.30;99.90;;;;;;5089825;28;20522;-71
2023/09/08 01:37:57;;;;;;;12.90;7.10;;;16.30;99.90;;;;;;5089648;28;20978;-71
2023/09/08 01:40:22;;;;;;;6.33;5.73;;;16.30;99.90;;;;;;5089612;28;20412;-71
2023/09/08 01:42:49;;;;;;;10.90;6.43;;;16.20;99.90;;;;;;5089509;28;20649;-71
2023/09/08 01:45:14;;;;;;;7.37;5.90;;;16.30;99.90;;;;;;5088005;28;21590;-71
2023/09/08 01:47:40;;;;;;;10.07;5.80;;;16.30;99.90;;;;;;5089438;28;20518;-71
2023/09/08 01:50:06;;;;;;;8.23;5.90;;;16.30;99.90;;;;;;5089378;28;20385;-71
2023/09/08 01:52:32;;;;;;;8.30;6.67;;;16.20;99.90;;;;;;5089541;28;20239;-71
2023/09/08 01:54:57;;;;;;;7.03;5.80;;;16.10;99.90;;;;;;5088381;28;20443;-71
2023/09/08 01:57:23;;;;;;;7.40;6.53;;;16.10;99.90;;;;;;5089705;28;20219;-72
2023/09/08 01:59:48;;;;;;;10.67;6.50;;;16.00;99.90;;;;;;5089256;28;20308;-71
2023/09/08 02:02:14;;;;;;;6.50;5.77;;;16.00;99.90;;;;;;5089180;28;20207;-72
2023/09/08 02:04:40;;;;;;;13.80;7.20;;;15.90;99.90;;;;;;5087685;28;20260;-71
2023/09/08 02:07:05;;;;;;;11.53;6.90;;;15.90;99.90;;;;;;5089010;28;20284;-71
2023/09/08 02:09:36;;;;;;;7.83;6.70;;;15.80;99.90;;;;;;5089030;28;20204;-72
2023/09/08 02:12:02;;;;;;;9.93;6.90;;;15.80;99.90;;;;;;5088910;28;20219;-71
2023/09/08 02:14:28;;;;;;;8.67;7.20;;;15.80;99.90;;;;;;5088874;28;20424;-71
2023/09/08 02:16:54;;;;;;;8.73;6.83;;;15.70;99.90;;;;;;5070627;28;20440;-71
2023/09/08 02:19:20;;;;;;;11.60;7.57;;;15.70;99.90;;;;;;5088904;28;20174;-71
2023/09/08 02:21:46;;;;;;;9.60;7.03;;;15.60;99.90;;;;;;5088747;28;20488;-71
2023/09/08 02:24:11;;;;;;;10.03;6.80;;;15.60;99.90;;;;;;5089196;28;20601;-71
2023/09/08 02:26:38;;;;;;;11.00;6.40;;;15.60;99.90;;;;;;5088686;28;20239;-71
2023/09/08 02:29:04;;;;;;;9.63;7.20;;;15.60;99.90;;;;;;5088599;28;20289;-71
2023/09/08 02:31:30;;;;;;;10.13;7.47;;;15.40;99.90;;;;;;5087220;28;21048;-71
2023/09/08 02:33:56;;;;;;;9.13;7.00;;;15.40;99.90;;;;;;5088667;28;20721;-71
2023/09/08 02:36:25;;;;;;;9.17;6.43;;;15.40;99.90;;;;;;5088577;28;20455;-71
2023/09/08 02:38:54;;;;;;;10.80;7.47;;;15.40;99.90;;;;;;5088986;28;20991;-71
2023/09/08 02:41:21;;;;;;;10.83;7.53;;;15.40;99.90;;;;;;5088464;28;20518;-71
2023/09/08 02:43:47;;;;;;;14.03;6.97;;;15.40;99.90;;;;;;5087118;28;20635;-71
2023/09/08 02:46:12;;;;;;;10.93;6.90;;;15.40;99.90;;;;;;5088351;28;20438;-72
2023/09/08 02:48:38;;;;;;;8.60;7.20;;;15.40;99.90;;;;;;5088496;28;20852;-71
2023/09/08 02:51:04;;;;;;;8.13;6.60;;;15.30;99.90;;;;;;5088335;28;20482;-71
2023/09/08 02:53:30;;;;;;;10.40;7.97;;;15.30;99.90;;;;;;5088363;28;20426;-71
2023/09/08 02:55:56;;;;;;;9.37;7.50;;;15.30;99.90;;;;;;5088198;28;20216;-71
2023/09/08 02:58:22;;;;;;;9.57;7.20;;;15.20;99.90;;;;;;5088652;28;20487;-72
2023/09/08 03:00:48;;;;;;;11.87;7.33;;;15.20;99.90;;;;;;5088357;28;20918;-71
2023/09/08 03:03:14;;;;;;;11.20;8.60;;;15.10;99.90;;;;;;5088548;28;20175;-72
2023/09/08 03:05:40;;;;;;;11.67;8.00;;;15.10;99.90;;;;;;5089381;28;20443;-71
2023/09/08 03:08:05;;;;;;;14.60;8.53;;;15.10;99.90;;;;;;5092539;28;20237;-71
2023/09/08 03:10:36;;;;;;;15.87;7.93;;;15.00;99.90;;;;;;5092384;28;20610;-71
2023/09/08 03:13:03;;;;;;;11.40;6.97;;;15.10;99.90;;;;;;5092482;28;20180;-70
2023/09/08 03:15:28;;;;;;;7.70;6.90;;;15.10;99.90;;;;;;5092654;28;20969;-71
2023/09/08 03:17:55;;;;;;;10.33;7.83;;;15.00;99.90;;;;;;5092619;28;20418;-70
2023/09/08 03:20:21;;;;;;;8.53;7.37;;;15.00;99.90;;;;;;5092539;28;20181;-70
2023/09/08 03:22:46;;;;;;;9.23;7.37;;;15.00;99.90;;;;;;5092577;28;20419;-71
2023/09/08 03:25:14;;;;;;;10.80;8.10;;;14.90;99.90;;;;;;5092274;28;20475;-71
2023/09/08 03:27:39;;;;;;;12.13;8.17;;;14.70;99.90;;;;;;5092367;28;20185;-72
2023/09/08 03:30:06;;;;;;;12.37;8.20;;;14.60;99.90;;;;;;5090920;28;20437;-71
2023/09/08 03:32:31;;;;;;;9.03;7.57;;;14.60;99.90;;;;;;5092278;28;20250;-73
2023/09/08 03:34:57;;;;;;;12.83;8.37;;;14.60;99.90;;;;;;5092075;28;20462;-71
2023/09/08 03:37:23;;;;;;;18.03;8.33;;;14.60;99.90;;;;;;5090841;28;20180;-71
2023/09/08 03:39:48;;;;;;;9.77;7.33;;;14.60;99.90;;;;;;5092265;28;20180;-71
2023/09/08 03:42:14;;;;;;;11.47;8.40;;;14.60;99.90;;;;;;5090560;28;20271;-71
2023/09/08 03:44:39;;;;;;;14.07;10.10;;;14.60;99.90;;;;;;5090813;28;20249;-72
2023/09/08 03:47:14;;;;;;;10.23;8.47;;;14.60;99.90;;;;;;5090499;28;20606;-71
2023/09/08 03:49:39;;;;;;;9.93;8.23;;;14.60;99.90;;;;;;5091992;28;20192;-71
2023/09/08 03:52:05;;;;;;;11.77;9.37;;;14.70;99.90;;;;;;5091822;28;20518;-71
2023/09/08 03:54:31;;;;;;;10.90;7.57;;;14.70;99.90;;;;;;5090426;28;20222;-72
2023/09/08 03:56:56;;;;;;;12.33;8.30;;;14.70;99.90;;;;;;5091833;28;20208;-71
2023/09/08 03:59:22;;;;;;;10.90;7.83;;;14.60;99.90;;;;;;5090806;28;20201;-71
2023/09/08 04:01:47;;;;;;;9.17;7.43;;;14.60;99.90;;;;;;5090475;28;20187;-71
2023/09/08 04:04:13;;;;;;;8.27;6.90;;;14.60;99.90;;;;;;5092181;28;20560;-72
2023/09/08 04:06:39;;;;;;;8.90;7.23;;;14.70;99.90;;;;;;5090405;28;20208;-72
2023/09/08 04:09:04;;;;;;;8.67;7.43;;;14.70;99.90;;;;;;5090409;28;20246;-73
2023/09/08 04:11:30;;;;;;;8.33;6.90;;;14.70;99.90;;;;;;5091653;28;21023;-72
2023/09/08 04:13:55;;;;;;;12.53;6.70;;;14.60;99.90;;;;;;5091654;28;20271;-72
2023/09/08 04:16:21;;;;;;;9.70;7.60;;;14.70;99.90;;;;;;5090530;28;20288;-72
2023/09/08 04:18:47;;;;;;;12.00;6.90;;;14.70;99.90;;;;;;5090115;28;20898;-72
2023/09/08 04:21:12;;;;;;;9.13;7.03;;;14.60;99.90;;;;;;5091757;28;20259;-72
2023/09/08 04:23:38;;;;;;;16.63;7.23;;;14.60;99.90;;;;;;5091574;28;20180;-72
2023/09/08 04:26:04;;;;;;;10.10;7.70;;;14.60;99.90;;;;;;5090075;28;20281;-72
2023/09/08 04:28:29;;;;;;;9.83;7.03;;;14.70;99.90;;;;;;5091746;28;20556;-72
2023/09/08 04:30:55;;;;;;;8.30;7.40;;;14.70;99.90;;;;;;5089754;28;20467;-71
2023/09/08 04:33:21;;;;;;;11.83;7.97;;;14.60;99.90;;;;;;5090817;28;20491;-71
2023/09/08 04:35:46;;;;;;;9.50;6.90;;;14.50;99.90;;;;;;5090791;28;20253;-71
2023/09/08 04:38:12;;;;;;;8.80;6.93;;;14.50;99.90;;;;;;5090649;28;20180;-71
2023/09/08 04:40:41;;;;;;;9.50;7.60;;;14.50;99.90;;;;;;5090749;28;20682;-71
2023/09/08 04:43:07;;;;;;;10.50;7.10;;;14.50;99.90;;;;;;5089576;28;20226;-71
2023/09/08 04:45:33;;;;;;;10.03;7.23;;;14.50;99.90;;;;;;5089492;28;20429;-71
2023/09/08 04:47:58;;;;;;;9.00;7.10;;;14.50;99.90;;;;;;5091020;28;20646;-71
2023/09/08 04:50:24;;;;;;;6.90;6.30;;;14.60;99.90;;;;;;5091050;28;20269;-71
2023/09/08 04:52:49;;;;;;;9.13;6.17;;;14.50;99.90;;;;;;5090996;28;20216;-71
2023/09/08 04:55:15;;;;;;;9.13;6.47;;;14.50;99.90;;;;;;5090716;28;20766;-71
2023/09/08 04:57:40;;;;;;;11.60;7.03;;;14.50;99.90;;;;;;5089706;28;20199;-71
2023/09/08 05:00:07;;;;;;;11.70;6.73;;;14.50;99.90;;;;;;5089369;28;20214;-71
2023/09/08 05:02:32;;;;;;;11.67;7.67;;;14.40;99.90;;;;;;5090926;28;20260;-71
2023/09/08 05:04:59;;;;;;;10.70;7.17;;;14.40;99.90;;;;;;5090659;28;20909;-71
2023/09/08 05:07:25;;;;;;;10.73;7.60;;;14.40;99.90;;;;;;5090993;28;20172;-71
2023/09/08 05:09:51;;;;;;;11.17;7.40;;;14.40;99.90;;;;;;5089144;28;20414;-71
2023/09/08 05:12:16;;;;;;;7.47;6.70;;;14.40;99.90;;;;;;5090456;28;20211;-71
2023/09/08 05:14:42;;;;;;;14.20;7.10;;;14.50;99.90;;;;;;5090634;28;20720;-71
2023/09/08 05:17:07;;;;;;;7.50;6.67;;;14.50;99.90;;;;;;5089067;28;20200;-71
2023/09/08 05:19:33;;;;;;;8.60;6.60;;;14.40;99.90;;;;;;5089950;28;20178;-71
2023/09/08 05:21:59;;;;;;;11.20;7.17;;;14.40;99.90;;;;;;5089819;28;20316;-68
2023/09/08 05:24:26;;;;;;;8.00;6.60;;;14.50;99.90;;;;;;5090292;28;20185;-67
2023/09/08 05:26:52;;;;;;;8.03;6.80;;;14.50;99.90;;;;;;5089996;28;20202;-68
2023/09/08 05:29:18;;;;;;;8.77;7.17;;;14.50;99.90;;;;;;5089960;28;20417;-68
2023/09/08 05:31:43;;;;;;;10.60;6.83;;;14.60;99.90;;;;;;5089846;28;20459;-68
2023/09/08 05:34:09;;;;;;;10.73;6.80;;;14.60;99.90;;;;;;5089896;28;20177;-70
2023/09/08 05:36:37;;;;;;;8.57;6.87;;;14.60;99.90;;;;;;5089799;28;20674;-68
2023/09/08 05:39:03;;;;;;;8.63;6.87;;;14.60;99.90;;;;;;5089933;28;20426;-68
2023/09/08 05:41:29;;;;;;;13.03;7.00;;;14.70;99.90;;;;;;5089703;28;20428;-67
2023/09/08 05:43:54;;;;;;;7.63;6.67;;;14.70;99.90;;;;;;5089923;28;20183;-68
2023/09/08 05:46:20;;;;;;;10.63;6.63;;;14.90;99.90;;;;;;5088191;28;20198;-69
2023/09/08 05:48:47;;;;;;;7.73;6.27;;;15.00;99.90;;;;;;5089937;28;20207;-68
2023/09/08 05:51:14;;;;;;;11.10;8.17;;;15.10;99.90;;;;;;5089928;28;20200;-68
2023/09/08 05:53:40;;;;;;;9.60;6.47;;;15.30;99.90;;;;;;5089658;28;20492;-68
2023/09/08 05:56:06;;;;;;;11.70;6.83;;;15.30;99.90;;;;;;5089309;28;20459;-68
2023/09/08 05:58:33;;;;;;;12.20;6.80;;;15.40;99.90;;;;;;5087741;28;20432;-68
2023/09/08 06:01:00;;;;;;;11.27;7.13;;;15.50;99.90;;;;;;5089348;28;20425;-66
2023/09/08 06:03:26;;;;;;;9.47;6.43;;;15.60;99.90;;;;;;5089362;28;20418;-68
2023/09/08 06:05:52;;;;;;;9.83;6.90;;;15.80;99.90;;;;;;5089199;28;20507;-68
2023/09/08 06:08:17;;;;;;;8.30;7.27;;;15.90;99.90;;;;;;5089221;28;20597;-68
2023/09/08 06:10:43;;;;;;;8.13;6.83;;;16.10;99.90;;;;;;5088936;28;20583;-67
2023/09/08 06:13:09;;;;;;;10.00;7.13;;;16.30;99.90;;;;;;5087840;28;20211;-68
2023/09/08 06:15:34;;;;;;;11.20;7.00;;;16.60;99.90;;;;;;5089075;28;20251;-68
2023/09/08 06:18:00;;;;;;;8.00;6.87;;;17.10;99.90;;;;;;5088864;28;20180;-68
2023/09/08 06:20:26;;;;;;;8.20;6.50;;;17.50;99.90;;;;;;5070723;28;20212;-69
2023/09/08 06:22:52;;;;;;;10.87;6.93;;;17.90;99.90;;;;;;5089198;28;20185;-71
2023/09/08 06:25:17;;;;;;;8.93;6.83;;;18.10;99.90;;;;;;5070799;28;20971;-67
2023/09/08 06:27:44;;;;;;;11.20;7.27;;;18.50;99.90;;;;;;5088917;28;20189;-68
2023/09/08 06:30:10;;;;;;;8.17;6.00;;;18.60;99.90;;;;;;5088965;28;20186;-68
2023/09/08 06:32:36;;;;;;;12.83;6.60;;;18.50;99.90;;;;;;5087573;28;20469;-68
2023/09/08 06:35:01;;;;;;;10.53;6.90;;;18.50;99.90;;;;;;5088919;28;20912;-66
2023/09/08 06:37:28;;;;;;;8.63;5.77;;;18.40;99.90;;;;;;5088902;28;20182;-68
2023/09/08 06:39:54;;;;;;;12.43;6.67;;;18.20;99.90;;;;;;5087110;28;20178;-68
2023/09/08 06:42:20;;;;;;;8.00;6.30;;;18.10;99.90;;;;;;5088826;28;20964;-68
2023/09/08 06:44:46;;;;;;;8.37;6.83;;;17.80;99.90;;;;;;5088838;28;20444;-67
2023/09/08 06:47:11;;;;;;;10.50;7.63;;;17.70;99.90;;;;;;5087512;28;20623;-68
2023/09/08 06:49:37;;;;;;;14.50;7.67;;;17.90;99.90;;;;;;5088887;28;20239;-69
2023/09/08 06:52:03;;;;;;;10.60;7.50;;;17.90;99.90;;;;;;5088768;28;20729;-68
2023/09/08 06:54:28;;;;;;;12.00;7.90;;;17.90;99.90;;;;;;5088764;28;20190;-68
2023/09/08 06:56:54;;;;;;;9.53;7.97;;;17.80;99.90;;;;;;5088772;28;20276;-66
2023/09/08 06:59:19;;;;;;;14.07;7.83;;;17.70;99.90;;;;;;5088907;28;20183;-68
2023/09/08 07:01:45;;;;;;;10.10;8.10;;;17.80;99.90;;;;;;5089144;28;20174;-68
2023/09/08 07:04:10;;;;;;;9.50;8.10;;;17.80;99.90;;;;;;5088694;28;20196;-68
2023/09/08 07:06:38;;;;;;;13.93;8.20;;;17.90;99.90;;;;;;5088577;28;20567;-67
2023/09/08 07:09:04;;;;;;;15.23;8.97;;;17.90;99.90;;;;;;5088846;28;20187;-68
2023/09/08 07:11:30;;;;;;;19.20;10.40;;;17.90;99.90;;;;;;5088536;28;20554;-68
2023/09/08 07:13:56;;;;;;;12.53;8.90;;;18.00;99.90;;;;;;5087406;28;20196;-68
2023/09/08 07:16:22;;;;;;;12.90;8.97;;;18.00;99.90;;;;;;5088663;28;20435;-68
2023/09/08 07:18:47;;;;;;;13.30;7.90;;;18.10;99.90;;;;;;5088583;28;20412;-68
2023/09/08 07:21:13;;;;;;;10.83;8.50;;;18.10;99.90;;;;;;5086893;28;20613;-68
2023/09/08 07:23:39;;;;;;;10.10;8.43;;;18.20;99.90;;;;;;5088269;28;20186;-68
2023/09/08 07:26:04;;;;;;;9.83;8.83;;;18.30;99.90;;;;;;5088064;28;20252;-67
2023/09/08 07:28:30;;;;;;;10.23;8.27;;;18.30;99.90;;;;;;5088304;28;20186;-68
2023/09/08 07:31:02;;;;;;;14.90;7.80;;;18.40;99.90;;;;;;5086827;28;20205;-68
2023/09/08 07:33:28;;;;;;;9.60;7.97;;;18.50;99.90;;;;;;5087986;28;20983;-68
2023/09/08 07:35:54;;;;;;;13.47;7.10;;;18.50;99.90;;;;;;5087743;28;20428;-68
2023/09/08 07:38:19;;;;;;;10.73;7.13;;;18.70;99.90;;;;;;5087634;28;20185;-68
2023/09/08 07:40:45;;;;;;;8.80;6.23;;;18.80;99.90;;;;;;5087886;28;20186;-68
2023/09/08 07:43:10;;;;;;;7.30;6.40;;;18.90;99.90;;;;;;5086400;28;20175;-68
2023/09/08 07:45:36;;;;;;;8.27;6.53;;;19.00;99.90;;;;;;5087577;28;21021;-68
2023/09/08 07:48:02;;;;;;;9.93;7.17;;;19.10;99.90;;;;;;5087440;28;20183;-68
2023/09/08 07:50:28;;;;;;;11.20;7.00;;;19.20;99.90;;;;;;5087528;28;20217;-68
2023/09/08 07:52:55;;;;;;;12.13;7.40;;;19.20;99.90;;;;;;5090540;28;20613;-68
2023/09/08 07:55:22;;;;;;;9.47;6.67;;;19.30;99.90;;;;;;5091580;28;20470;-66
2023/09/08 07:57:49;;;;;;;9.10;7.57;;;19.50;99.90;;;;;;5091927;28;20413;-68
2023/09/08 08:00:16;;;;;;;10.13;6.13;;;19.40;99.90;;;;;;5091878;28;20531;-68
2023/09/08 08:02:49;;;;;;;11.70;6.30;;;19.60;99.90;;;;;;5091765;28;20951;-68
2023/09/08 08:05:15;;;;;;;9.10;6.77;;;19.70;99.90;;;;;;5091589;28;21340;-68
2023/09/08 08:07:42;;;;;;;11.30;6.30;;;19.90;99.90;;;;;;5089959;28;20416;-65
2023/09/08 08:10:08;;;;;;;7.00;6.30;;;20.00;99.90;;;;;;5091570;28;20495;-68
2023/09/08 08:12:34;;;;;;;10.33;7.00;;;20.10;99.90;;;;;;5091526;28;20460;-68
2023/09/08 08:15:00;;;;;;;10.10;7.13;;;20.20;99.90;;;;;;5091314;28;20478;-67
2023/09/08 08:17:27;;;;;;;8.43;6.30;;;20.30;99.90;;;;;;5089900;28;20190;-67
2023/09/08 08:19:53;;;;;;;11.30;7.13;;;20.50;99.90;;;;;;5089802;28;20178;-68
2023/09/08 08:22:19;;;;;;;8.13;6.90;;;20.60;99.90;;;;;;5091232;28;20895;-68
2023/09/08 08:24:45;;;;;;;7.00;5.80;;;20.70;99.90;;;;;;5091171;28;20988;-68
2023/09/08 08:27:10;;;;;;;10.20;6.73;;;20.90;99.90;;;;;;5090856;28;20221;-67
2023/09/08 08:29:36;;;;;;;7.63;6.70;;;21.00;99.90;;;;;;5091189;28;20588;-70
2023/09/08 08:32:02;;;;;;;8.77;6.87;;;21.20;99.90;;;;;;5090837;28;20214;-69
2023/09/08 08:34:28;;;;;;;8.87;6.40;;;21.30;99.90;;;;;;5090807;28;20180;-68
2023/09/08 08:36:54;;;;;;;10.73;7.17;;;21.40;99.90;;;;;;5090731;28;20940;-68
2023/09/08 08:39:19;;;;;;;6.87;5.90;;;21.50;99.90;;;;;;5090826;28;20181;-68
2023/09/08 08:41:45;;;;;;;8.50;6.33;;;21.70;99.90;;;;;;5090539;28;20417;-69
2023/09/08 08:44:10;;;;;;;8.00;6.90;;;21.80;99.90;;;;;;5089213;28;20188;-69
2023/09/08 08:46:37;;;;;;;9.40;6.43;;;21.90;99.90;;;;;;5090384;28;20236;-68
2023/09/08 08:49:04;;;;;;;9.40;6.57;;;22.10;99.90;;;;;;5090510;28;20182;-69
2023/09/08 08:51:34;;;;;;;8.30;5.80;;;22.20;99.90;;;;;;5090316;28;20473;-68
2023/09/08 08:54:04;;;;;;;12.27;7.63;;;22.40;99.90;;;;;;5090319;28;20413;-67
2023/09/08 08:56:35;;;;;;;15.13;7.67;;;22.60;99.90;;;;;;5090335;28;20586;-69
2023/09/08 08:59:02;;;;;;;9.67;6.70;;;22.60;99.90;;;;;;5090371;28;20409;-68
2023/09/08 09:01:29;;;;;;;13.77;7.20;;;22.80;99.90;;;;;;5090134;28;20418;-71
2023/09/08 09:03:55;;;;;;;9.13;6.23;;;23.00;99.90;;;;;;5089687;28;20412;-68
2023/09/08 09:06:21;;;;;;;11.23;5.60;;;23.30;99.90;;;;;;5090118;28;21338;-68
2023/09/08 09:08:47;;;;;;;10.40;6.90;;;23.40;99.90;;;;;;5090140;28;20427;-68
2023/09/08 09:11:13;;;;;;;8.17;6.20;;;23.70;99.90;;;;;;5088393;28;20228;-69
2023/09/08 09:13:39;;;;;;;9.47;6.80;;;24.10;99.90;;;;;;5089717;28;20230;-68
2023/09/08 09:16:07;;;;;;;11.97;6.90;;;24.40;99.90;;;;;;5089648;28;20430;-69
2023/09/08 09:18:33;;;;;;;13.40;7.17;;;24.70;99.90;;;;;;5089878;28;20239;-67
2023/09/08 09:21:01;;;;;;;7.80;6.10;;;25.00;99.90;;;;;;5089792;28;20411;-70
2023/09/08 09:23:31;;;;;;;12.70;7.00;;;25.30;99.90;;;;;;5089726;28;20423;-68
2023/09/08 09:25:57;;;;;;;11.77;7.03;;;25.40;99.90;;;;;;5089622;28;20502;-68
2023/09/08 09:28:23;;;;;;;8.80;6.80;;;25.70;99.90;;;;;;5089719;28;20408;-68
2023/09/08 09:30:51;;;;;;;12.30;6.70;;;26.10;99.90;;;;;;5089117;28;20796;-69
2023/09/08 09:33:17;;;;;;;10.80;5.80;;;26.50;99.90;;;;;;5089247;28;20189;-68
2023/09/08 09:35:57;;;;;;;10.07;6.10;;;27.00;99.90;;;;;;5089122;28;20432;-68
2023/09/08 09:38:26;;;;;;;8.40;5.67;;;27.80;99.90;;;;;;5089179;28;20407;-68
2023/09/08 09:40:52;;;;;;;8.70;5.20;;;28.10;99.90;;;;;;5089467;28;20400;-69
2023/09/08 09:43:22;;;;;;;9.30;5.73;;;28.70;97.70;;;;;;5089735;28;20424;-68
2023/09/08 09:45:48;;;;;;;6.57;5.10;;;28.90;96.10;;;;;;5089781;28;20758;-69
2023/09/08 09:48:14;;;;;;;13.03;7.27;;;29.10;94.60;;;;;;5089949;28;20523;-67
2023/09/08 09:50:42;;;;;;;6.43;5.83;;;29.40;95.90;;;;;;5088631;28;20178;-68
2023/09/08 09:53:18;;;;;;;9.90;5.10;;;29.20;99.40;;;;;;5089845;28;20776;-67
2023/09/08 09:55:45;;;;;;;7.27;5.70;;;29.60;93.70;;;;;;5089901;28;20994;-68
2023/09/08 09:58:11;;;;;;;8.53;5.40;;;30.10;92.70;;;;;;5089719;28;20435;-66
2023/09/08 10:00:40;;;;;;;9.70;5.00;;;30.30;93.30;;;;;;5089687;28;20783;-68
2023/09/08 10:03:06;;;;;;;7.30;5.10;;;30.60;94.30;;;;;;5089800;28;20415;-68
2023/09/08 10:05:33;;;;;;;5.53;5.03;;;30.70;92.00;;;;;;5089494;28;20456;-68
2023/09/08 10:07:59;;;;;;;6.97;4.73;;;30.50;91.20;;;;;;5089610;28;20492;-67
2023/09/08 10:10:27;;;;;;;5.90;5.40;;;30.70;91.70;;;;;;5089403;28;20476;-69
2023/09/08 10:12:54;;;;;;;6.20;5.70;;;30.90;91.90;;;;;;5088251;28;20571;-66
2023/09/08 10:15:24;;;;;;;5.60;4.70;;;31.10;91.10;;;;;;5088495;28;20440;-68
2023/09/08 10:17:56;;;;;;;15.00;5.40;;;31.30;89.60;;;;;;5089127;28;20934;-69
2023/09/08 10:20:23;;;;;;;7.13;6.20;;;31.30;90.80;;;;;;5089349;28;20416;-68
2023/09/08 10:23:09;;;;;;;6.37;5.03;;;31.60;96.30;;;;;;5089185;28;20415;-68
2023/09/08 10:25:37;;;;;;;7.83;5.27;;;31.60;98.20;;;;;;5089319;28;20503;-69
2023/09/08 10:28:03;;;;;;;9.63;5.57;;;31.70;94.90;;;;;;5089304;28;20780;-68
2023/09/08 10:30:31;;;;;;;6.10;5.57;;;31.80;96.70;;;;;;5089096;28;20532;-68
2023/09/08 10:32:57;;;;;;;6.17;5.67;;;31.70;88.80;;;;;;5089157;28;20827;-68
2023/09/08 10:35:23;;;;;;;6.40;5.80;;;32.00;92.10;;;;;;5089052;28;20444;-69
2023/09/08 10:37:49;;;;;;;5.50;5.00;;;32.10;91.40;;;;;;5089543;28;20421;-68
2023/09/08 10:40:27;;;;;;;15.00;5.53;;;32.30;92.70;;;;;;5089676;28;20181;-68
2023/09/08 10:43:09;;;;;;;12.63;6.10;;;32.30;93.30;;;;;;5089439;28;20654;-69
2023/09/08 10:45:35;;;;;;;9.60;5.60;;;32.40;92.60;;;;;;5089164;28;20474;-69
2023/09/08 10:48:01;;;;;;;6.27;5.37;;;32.40;92.20;;;;;;5089322;28;20950;-68
2023/09/08 10:50:31;;;;;;;7.03;4.87;;;32.60;90.60;;;;;;5089036;28;20420;-68
2023/09/08 10:53:17;;;;;;;8.50;5.50;;;32.50;93.80;;;;;;5088722;28;20681;-69
2023/09/08 10:55:51;;;;;;;8.40;5.50;;;32.50;94.60;;;;;;5088276;28;21022;-68
2023/09/08 10:58:33;;;;;;;6.17;5.20;;;32.60;99.90;;;;;;5088527;28;20847;-70
2023/09/08 11:01:01;;;;;;;9.63;6.37;;;32.60;99.90;;;;;;5088283;28;20420;-68
2023/09/08 11:03:39;;;;;;;6.43;4.80;;;32.80;99.90;;;;;;5088468;28;20793;-68
2023/09/08 11:06:09;;;;;;;7.13;6.53;;;32.90;96.70;;;;;;5087080;28;20511;-67
2023/09/08 11:08:38;;;;;;;7.60;5.10;;;32.90;98.40;;;;;;5088703;28;20474;-68
2023/09/08 11:11:03;;;;;;;5.90;5.30;;;32.90;99.90;;;;;;5088637;28;20463;-69
2023/09/08 11:13:29;;;;;;;7.90;5.67;;;32.80;97.40;;;;;;5088434;28;20419;-68
2023/09/08 11:15:55;;;;;;;7.47;6.40;;;32.80;97.90;;;;;;5088185;28;20193;-68
2023/09/08 11:18:27;;;;;;;8.03;5.73;;;32.80;99.90;;;;;;5088309;28;20178;-68
2023/09/08 11:20:53;;;;;;;6.20;5.60;;;32.50;99.90;;;;;;5088563;28;20419;-68
2023/09/08 11:23:21;;;;;;;7.27;5.67;;;32.40;87.80;;;;;;5087141;28;20499;-68
2023/09/08 11:25:47;;;;;;;6.00;5.50;;;32.50;87.00;;;;;;5089525;28;20489;-67
2023/09/08 11:28:13;;;;;;;5.77;5.13;;;32.00;84.30;;;;;;5092602;28;20412;-69
2023/09/08 11:30:39;;;;;;;9.00;6.20;;;31.60;88.60;;;;;;5091112;28;20511;-67
2023/09/08 11:33:24;;;;;;;7.10;5.20;;;31.20;83.40;;;;;;5092637;28;20517;-67
2023/09/08 11:35:54;;;;;;;7.20;5.30;;;30.80;83.50;;;;;;5090804;28;20531;-68
2023/09/08 11:38:27;;;;;;;8.00;5.97;;;30.50;86.20;;;;;;5092181;28;20412;-68
2023/09/08 11:40:54;;;;;;;6.13;5.53;;;30.30;86.10;;;;;;5092412;28;20408;-67
2023/09/08 11:43:20;;;;;;;6.87;5.60;;;29.90;85.90;;;;;;5090791;28;20415;-68
2023/09/08 11:45:46;;;;;;;10.97;6.00;;;29.70;86.20;;;;;;5091488;28;20431;-67
2023/09/08 11:48:14;;;;;;;6.93;5.63;;;29.70;87.70;;;;;;5091442;28;20412;-68
2023/09/08 11:50:44;;;;;;;6.20;5.47;;;29.60;88.20;;;;;;5091290;28;20178;-67
2023/09/08 11:53:09;;;;;;;5.63;5.13;;;29.50;89.50;;;;;;5091064;28;20445;-67
2023/09/08 11:55:36;;;;;;;6.07;5.37;;;29.40;90.10;;;;;;5090971;28;20542;-67
2023/09/08 11:58:03;;;;;;;8.30;5.80;;;29.30;90.70;;;;;;5091171;28;20209;-68
2023/09/08 12:00:29;;;;;;;5.90;5.30;;;29.50;89.00;;;;;;5091288;28;20408;-68
2023/09/08 12:02:55;;;;;;;6.57;5.50;;;29.60;91.20;;;;;;5091070;28;20416;-67
2023/09/08 12:05:26;;;;;;;9.70;5.43;;;29.50;90.50;;;;;;5090823;28;20551;-70
2023/09/08 12:07:58;;;;;;;11.53;5.70;;;29.50;90.20;;;;;;5091044;28;20878;-67
2023/09/08 12:10:25;;;;;;;8.77;5.90;;;29.60;90.80;;;;;;5091156;28;21079;-68
2023/09/08 12:12:59;;;;;;;5.40;4.90;;;29.60;90.20;;;;;;5091067;28;20464;-68
2023/09/08 12:15:38;;;;;;;6.53;5.90;;;29.70;90.50;;;;;;5090929;28;20431;-68
2023/09/08 12:18:09;;;;;;;7.17;5.20;;;29.60;90.60;;;;;;5090754;28;20416;-67
2023/09/08 12:20:36;;;;;;;6.70;6.10;;;29.60;90.30;;;;;;5090770;28;20409;-67
2023/09/08 12:23:04;;;;;;;10.97;5.50;;;29.50;88.90;;;;;;5090978;28;20449;-68
2023/09/08 12:25:33;;;;;;;6.90;5.67;;;29.50;88.60;;;;;;5090562;28;20513;-67
2023/09/08 12:28:00;;;;;;;7.93;5.90;;;29.50;88.50;;;;;;5090035;28;21293;-68
2023/09/08 12:30:32;;;;;;;6.40;5.90;;;29.50;89.60;;;;;;5089869;28;20993;-68
2023/09/08 12:32:59;;;;;;;6.40;5.80;;;29.60;90.10;;;;;;5090031;28;20468;-68
2023/09/08 12:35:25;;;;;;;5.90;5.40;;;29.60;90.10;;;;;;5090358;28;20459;-68
2023/09/08 12:38:01;;;;;;;9.50;6.10;;;29.60;90.30;;;;;;5088291;28;20794;-68
2023/09/08 12:40:28;;;;;;;6.17;5.67;;;29.60;90.10;;;;;;5090471;28;20443;-68
2023/09/08 12:42:55;;;;;;;6.80;6.03;;;29.60;90.20;;;;;;5090136;28;20455;-67